Time;durP1;ratioP1;P1;durP2;ratioP2;P2;SDS_P1;SDS_P2;PMS_P1;PMS_P2;Temp;Humidity;BMP_temperature;BMP_pressure;BME280_temperature;BME280_humidity;BME280_pressure;Samples;Min_cycle;Max_cycle;Signal;HPM_P1;HPM_P2
2020/12/24 00:01:46;;;;;;;6.55;5.72;;;;;;;10.45;88.63;94959.84;4973891;28;20027;-64
2020/12/24 00:04:11;;;;;;;7.55;6.28;;;;;;;10.82;88.28;94988.59;4971937;28;20488;-63
2020/12/24 00:06:36;;;;;;;5.65;5.15;;;;;;;10.93;87.82;94963.28;4971366;28;20122;-63
2020/12/24 00:09:02;;;;;;;8.43;5.70;;;;;;;10.97;87.76;94984.72;4971747;28;20039;-68
2020/12/24 00:11:27;;;;;;;4.60;4.15;;;;;;;10.14;86.57;94964.06;4970077;28;20022;-66
2020/12/24 00:13:52;;;;;;;6.30;5.10;;;;;;;10.07;88.16;94933.66;4972802;28;20057;-63
2020/12/24 00:16:18;;;;;;;8.07;6.80;;;;;;;10.65;88.09;94961.97;4969357;28;20034;-63
2020/12/24 00:18:43;;;;;;;9.70;6.78;;;;;;;10.85;88.56;94931.31;4970492;28;20408;-63
2020/12/24 00:21:09;;;;;;;11.23;6.85;;;;;;;11.29;88.67;94964.88;4970239;28;20046;-63
2020/12/24 00:23:35;;;;;;;7.50;6.80;;;;;;;11.43;87.92;94976.19;4970426;28;20437;-63
2020/12/24 00:26:03;;;;;;;8.20;5.85;;;;;;;11.32;86.05;94969.59;4972359;28;20054;-63
2020/12/24 00:28:28;;;;;;;5.93;5.43;;;;;;;11.14;85.58;94973.34;4970197;28;20089;-63
2020/12/24 00:30:53;;;;;;;9.18;7.72;;;;;;;11.18;87.41;94958.31;4969283;28;20043;-63
2020/12/24 00:33:19;;;;;;;6.47;5.85;;;;;;;10.86;83.98;95005.53;4970250;28;20093;-63
2020/12/24 00:35:44;;;;;;;6.57;5.53;;;;;;;10.46;86.17;94959.53;4970299;28;20453;-64
2020/12/24 00:38:09;;;;;;;8.48;7.63;;;;;;;10.86;87.29;94973.59;4971060;28;20035;-63
2020/12/24 00:40:35;;;;;;;9.15;8.25;;;;;;;10.95;87.09;94936.34;4969973;28;20047;-63
2020/12/24 00:43:00;;;;;;;11.68;10.50;;;;;;;11.14;88.36;94938.72;4968904;28;20144;-63
2020/12/24 00:45:25;;;;;;;7.47;6.88;;;;;;;11.10;86.46;94927.13;4968882;28;20045;-63
2020/12/24 00:47:51;;;;;;;5.68;5.18;;;;;;;11.20;86.04;94942.78;4969127;28;20117;-63
2020/12/24 00:50:16;;;;;;;6.45;5.85;;;;;;;11.15;85.94;94932.31;4970118;28;20432;-64
2020/12/24 00:52:42;;;;;;;8.43;7.63;;;;;;;11.38;86.73;94957.69;4971796;28;20062;-64
2020/12/24 00:55:07;;;;;;;8.20;7.22;;;;;;;11.61;87.77;94971.63;4969018;28;20035;-63
2020/12/24 00:57:32;;;;;;;7.10;6.40;;;;;;;11.45;83.19;94987.31;4970220;28;20523;-64
2020/12/24 00:59:57;;;;;;;6.68;6.00;;;;;;;10.10;86.19;94917.91;4969957;28;20058;-64
2020/12/24 01:02:23;;;;;;;9.60;7.53;;;;;;;10.65;85.97;94938.00;4969977;28;20034;-64
2020/12/24 01:04:48;;;;;;;8.75;7.93;;;;;;;10.87;86.79;94937.91;4971793;28;20053;-64
2020/12/24 01:07:13;;;;;;;7.07;6.47;;;;;;;11.03;87.12;94934.81;4969996;28;20515;-63
2020/12/24 01:09:39;;;;;;;8.65;7.85;;;;;;;11.33;86.91;94965.06;4969801;28;20035;-63
2020/12/24 01:12:04;;;;;;;8.35;7.65;;;;;;;11.55;87.17;94980.09;4969911;28;20046;-63
2020/12/24 01:14:30;;;;;;;7.75;6.63;;;;;;;11.51;86.74;94971.94;4970008;28;20042;-64
2020/12/24 01:16:55;;;;;;;10.90;9.77;;;;;;;11.32;86.58;94931.53;4971747;28;20014;-64
2020/12/24 01:19:21;;;;;;;9.02;8.20;;;;;;;11.53;86.79;94953.78;4973628;28;20485;-64
2020/12/24 01:21:47;;;;;;;11.13;8.30;;;;;;;11.47;87.10;94938.28;4973565;28;20570;-64
2020/12/24 01:24:12;;;;;;;10.93;9.85;;;;;;;11.69;86.96;94970.84;4973829;28;20039;-64
2020/12/24 01:26:44;;;;;;;12.23;11.02;;;;;;;11.67;87.56;94962.41;4973724;28;20062;-64
2020/12/24 01:29:09;;;;;;;10.50;9.47;;;;;;;11.71;86.76;94965.19;4975375;28;20089;-64
2020/12/24 01:31:34;;;;;;;6.78;6.10;;;;;;;11.26;82.42;94952.22;4973687;28;20596;-63
2020/12/24 01:33:59;;;;;;;8.88;7.93;;;;;;;11.16;83.21;94976.47;4972549;28;20039;-64
2020/12/24 01:36:25;;;;;;;8.93;8.00;;;;;;;11.08;83.74;94988.66;4973608;28;20042;-64
2020/12/24 01:38:50;;;;;;;8.38;7.63;;;;;;;10.44;85.57;94982.19;4973329;28;20042;-64
2020/12/24 01:41:15;;;;;;;10.57;9.52;;;;;;;10.86;86.44;95010.06;4973110;28;20026;-64
2020/12/24 01:43:41;;;;;;;10.55;8.90;;;;;;;10.61;85.06;94982.28;4974173;28;20023;-64
2020/12/24 01:46:06;;;;;;;23.30;11.95;;;;;;;10.61;86.07;94956.47;4973315;28;20078;-64
2020/12/24 01:48:31;;;;;;;11.57;10.48;;;;;;;10.46;85.99;94988.00;4973313;28;20063;-64
2020/12/24 01:50:57;;;;;;;12.27;11.00;;;;;;;10.16;87.46;94948.56;4973410;28;20097;-64
2020/12/24 01:53:24;;;;;;;13.82;12.48;;;;;;;10.77;87.41;94996.72;4972967;28;20106;-64
2020/12/24 01:55:51;;;;;;;11.48;10.38;;;;;;;10.65;87.39;94954.75;4975154;28;20089;-64
2020/12/24 01:58:18;;;;;;;16.15;12.35;;;;;;;10.91;87.01;94994.75;4973014;28;20424;-64
2020/12/24 02:00:47;;;;;;;13.32;11.23;;;;;;;10.82;86.40;94993.16;4971918;28;20062;-65
2020/12/24 02:03:14;;;;;;;14.15;11.63;;;;;;;10.22;87.38;94937.81;4971595;28;20090;-64
2020/12/24 02:05:40;;;;;;;13.18;10.63;;;;;;;10.37;88.07;94983.41;4973038;28;20031;-63
2020/12/24 02:08:05;;;;;;;11.18;10.13;;;;;;;10.03;88.89;94940.69;4973692;28;20380;-63
2020/12/24 02:10:30;;;;;;;10.00;9.00;;;;;;;10.11;88.17;94958.56;4972739;28;20043;-63
2020/12/24 02:12:56;;;;;;;11.93;10.63;;;;;;;9.87;89.66;94964.19;4971460;28;20553;-63
2020/12/24 02:15:21;;;;;;;10.70;9.70;;;;;;;9.93;89.26;94973.63;4972747;28;20122;-63
2020/12/24 02:17:46;;;;;;;12.05;10.82;;;;;;;10.14;89.59;94937.47;4971929;28;20511;-63
2020/12/24 02:20:12;;;;;;;14.77;11.60;;;;;;;10.53;89.19;94959.06;4974349;28;20031;-63
2020/12/24 02:22:37;;;;;;;11.68;10.48;;;;;;;10.68;88.98;94940.03;4971290;28;20049;-63
2020/12/24 02:25:03;;;;;;;11.68;10.48;;;;;;;11.06;88.89;94971.47;4972727;28;20055;-63
2020/12/24 02:27:28;;;;;;;9.55;8.55;;;;;;;10.53;86.40;94911.22;4972743;28;20035;-63
2020/12/24 02:29:53;;;;;;;10.05;9.05;;;;;;;11.13;87.76;94975.22;4971822;28;20031;-63
2020/12/24 02:32:19;;;;;;;11.52;9.90;;;;;;;11.06;87.86;94926.22;4972450;28;20038;-63
2020/12/24 02:34:44;;;;;;;10.65;9.52;;;;;;;11.13;87.62;94931.84;4974574;28;20027;-63
2020/12/24 02:37:10;;;;;;;11.02;9.48;;;;;;;11.09;87.60;94923.69;4972672;28;20074;-65
2020/12/24 02:39:35;;;;;;;7.72;7.03;;;;;;;11.04;85.09;94960.31;4972248;28;20472;-64
2020/12/24 02:42:00;;;;;;;9.88;8.88;;;;;;;10.97;86.90;94934.16;4972216;28;20527;-63
2020/12/24 02:44:26;;;;;;;10.82;8.00;;;;;;;10.55;87.36;94861.16;4970946;28;20374;-64
2020/12/24 02:46:52;;;;;;;5.45;4.95;;;;;;;10.99;85.51;94942.63;4974267;28;20037;-63
2020/12/24 02:49:17;;;;;;;5.25;4.75;;;;;;;10.87;85.47;94956.53;4970719;28;20139;-64
2020/12/24 02:51:42;;;;;;;4.88;3.97;;;;;;;10.54;86.13;94902.91;4971880;28;20031;-64
2020/12/24 02:54:08;;;;;;;6.38;5.50;;;;;;;10.65;87.19;94888.25;4972311;28;20026;-64
2020/12/24 02:56:33;;;;;;;2.67;2.47;;;;;;;10.51;86.28;94908.88;4970768;28;20124;-64
2020/12/24 02:58:58;;;;;;;3.53;3.22;;;;;;;10.52;85.75;94893.69;4972505;28;20552;-65
2020/12/24 03:01:23;;;;;;;4.20;3.85;;;;;;;10.76;87.13;94918.00;4970588;28;20038;-64
2020/12/24 03:03:49;;;;;;;3.05;2.75;;;;;;;10.70;85.78;94902.47;4972007;28;20089;-64
2020/12/24 03:06:14;;;;;;;3.55;3.20;;;;;;;10.38;84.29;94899.13;4971973;28;20035;-64
2020/12/24 03:08:39;;;;;;;3.30;3.00;;;;;;;10.48;85.65;94929.97;4971393;28;20086;-64
2020/12/24 03:11:05;;;;;;;2.88;2.67;;;;;;;10.01;85.52;94924.25;4973987;28;20038;-64
2020/12/24 03:13:30;;;;;;;4.22;3.10;;;;;;;9.64;87.33;94897.03;4971657;28;20070;-64
2020/12/24 03:15:55;;;;;;;3.65;3.10;;;;;;;9.38;88.13;94852.50;4971784;28;20043;-64
2020/12/24 03:18:20;;;;;;;3.97;3.55;;;;;;;10.05;88.32;94920.69;4971523;28;20041;-64
2020/12/24 03:20:46;;;;;;;3.85;3.45;;;;;;;9.84;87.58;94898.41;4971668;28;20149;-64
2020/12/24 03:23:11;;;;;;;3.22;2.92;;;;;;;10.08;87.33;94916.63;4973417;28;20409;-62
2020/12/24 03:25:36;;;;;;;2.63;2.42;;;;;;;9.78;86.59;94913.69;4971683;28;20126;-65
2020/12/24 03:28:02;;;;;;;2.63;2.40;;;;;;;9.92;87.24;94920.78;4971630;28;20392;-63
2020/12/24 03:30:27;;;;;;;2.25;2.05;;;;;;;9.52;87.59;94907.41;5010000;22;20084;-77
2020/12/24 03:32:52;;;;;;;2.05;1.63;;;;;;;9.27;89.18;94896.31;5010966;28;20091;-74
2020/12/24 03:35:18;;;;;;;1.65;1.55;;;;;;;9.15;89.70;94927.91;5011543;28;20033;-76
2020/12/24 03:37:43;;;;;;;1.65;1.45;;;;;;;9.35;88.84;94913.38;5013158;28;20162;-76
2020/12/24 03:40:08;;;;;;;4.47;1.92;;;;;;;9.03;88.88;94935.59;5009811;28;20034;-74
2020/12/24 03:42:35;;;;;;;1.30;1.20;;;;;;;9.08;88.74;94914.25;5010962;28;20042;-77
2020/12/24 03:45:00;;;;;;;1.27;0.90;;;;;;;8.63;90.25;94906.19;5010709;28;20142;-74
2020/12/24 03:47:25;;;;;;;0.90;0.75;;;;;;;8.82;89.51;94924.66;5026042;28;20530;-75
2020/12/24 03:49:50;;;;;;;0.80;0.80;;;;;;;8.66;89.02;94916.22;5012661;28;20022;-77
2020/12/24 03:52:16;;;;;;;1.15;0.60;;;;;;;8.59;89.23;94931.72;5010603;28;20030;-76
2020/12/24 03:54:41;;;;;;;0.65;0.50;;;;;;;8.54;89.50;94919.34;5010183;28;20040;-77
2020/12/24 03:57:06;;;;;;;0.40;0.40;;;;;;;8.66;88.67;94934.78;5010138;28;20026;-76
2020/12/24 03:59:32;;;;;;;0.52;0.45;;;;;;;8.55;89.05;94936.84;5010489;28;20161;-76
2020/12/24 04:01:57;;;;;;;0.50;0.40;;;;;;;8.31;89.52;94923.75;5012701;28;20024;-76
2020/12/24 04:04:22;;;;;;;0.52;0.52;;;;;;;8.38;88.71;94910.13;5010759;28;20054;-75
2020/12/24 04:06:48;;;;;;;1.85;0.50;;;;;;;8.25;89.27;94909.03;5010539;28;20054;-74
2020/12/24 04:09:13;;;;;;;0.40;0.40;;;;;;;8.34;89.04;94928.47;5009424;28;20124;-76
2020/12/24 04:11:38;;;;;;;0.40;0.40;;;;;;;8.41;89.17;94937.94;5025800;28;20034;-75
2020/12/24 04:14:04;;;;;;;0.55;0.30;;;;;;;8.56;88.57;94938.41;5012626;28;20026;-76
2020/12/24 04:16:29;;;;;;;0.85;0.30;;;;;;;8.71;87.34;94942.63;5010596;28;20137;-76
2020/12/24 04:18:54;;;;;;;0.20;0.20;;;;;;;8.57;87.16;94910.81;5025502;28;20073;-76
2020/12/24 04:21:21;;;;;;;0.20;0.20;;;;;;;8.46;87.14;94941.25;5010044;28;20168;-76
2020/12/24 04:23:46;;;;;;;0.60;0.30;;;;;;;8.57;86.92;94942.63;5009965;28;20113;-77
2020/12/24 04:26:21;;;;;;;0.60;0.30;;;;;;;8.48;87.58;94952.34;5011810;28;20030;-75
2020/12/24 04:28:48;;;;;;;0.20;0.20;;;;;;;8.11;88.74;94944.56;5024787;28;20042;-75
2020/12/24 04:31:13;;;;;;;0.82;0.20;;;;;;;8.16;87.95;94960.34;5024898;28;20069;-75
2020/12/24 04:33:39;;;;;;;1.20;0.30;;;;;;;8.02;88.21;94968.28;5010060;28;20102;-75
2020/12/24 04:36:05;;;;;;;1.08;0.20;;;;;;;8.01;88.27;94958.75;5010217;28;20076;-75
2020/12/24 04:38:31;;;;;;;1.30;0.20;;;;;;;7.98;88.71;94975.22;5009635;28;20025;-76
2020/12/24 04:40:57;;;;;;;0.40;0.30;;;;;;;7.56;88.81;94929.31;5012383;28;20029;-75
2020/12/24 04:43:25;;;;;;;0.20;0.20;;;;;;;7.77;88.64;94941.13;5010329;28;20053;-75
2020/12/24 04:45:52;;;;;;;0.25;0.15;;;;;;;7.72;88.57;94932.50;5010076;28;20050;-76
2020/12/24 04:48:18;;;;;;;0.60;0.30;;;;;;;7.80;88.34;94945.88;5009906;28;20057;-75
2020/12/24 04:50:47;;;;;;;0.22;0.17;;;;;;;7.84;88.06;94958.53;5025384;28;20487;-76
2020/12/24 04:53:12;;;;;;;0.30;0.20;;;;;;;7.96;87.79;94940.31;5011628;28;20052;-76
2020/12/24 04:55:38;;;;;;;0.57;0.20;;;;;;;7.65;87.74;94913.56;5010216;28;20026;-75
2020/12/24 04:58:03;;;;;;;0.17;0.10;;;;;;;7.71;87.52;94942.31;5009726;28;20511;-74
2020/12/24 05:00:29;;;;;;;0.52;0.10;;;;;;;7.69;86.36;94955.06;5008226;28;20049;-74
2020/12/24 05:03:09;;;;;;;0.82;0.10;;;;;;;7.88;86.55;94970.88;5008590;28;20034;-75
2020/12/24 05:05:36;;;;;;;0.15;0.10;;;;;;;7.61;86.99;94978.75;5009596;28;20041;-75
2020/12/24 05:08:03;;;;;;;4.75;0.20;;;;;;;7.46;87.88;94967.31;5011704;28;20032;-76
2020/12/24 05:10:29;;;;;;;0.25;0.10;;;;;;;7.08;88.10;94982.41;5009339;28;20469;-74
2020/12/24 05:12:54;;;;;;;0.20;0.20;;;;;;;7.14;87.84;94980.47;5009363;28;20128;-75
2020/12/24 05:15:30;;;;;;;1.08;0.30;;;;;;;7.05;89.35;94996.19;5009635;28;20030;-75
2020/12/24 05:18:23;;;;;;;1.95;0.20;;;;;;;7.34;89.02;94982.84;5010071;28;20433;-76
2020/12/24 05:20:49;;;;;;;1.00;0.20;;;;;;;7.23;88.63;94992.00;5007874;28;20048;-75
2020/12/24 05:23:17;;;;;;;1.17;0.20;;;;;;;7.07;88.69;94972.91;5008770;28;20109;-72
2020/12/24 05:25:43;;;;;;;0.20;0.20;;;;;;;7.13;87.78;94994.78;5011436;28;20516;-75
2020/12/24 05:28:19;;;;;;;1.33;0.05;;;;;;;7.06;87.93;94984.53;4991986;28;20047;-74
2020/12/24 05:30:45;;;;;;;0.55;0.20;;;;;;;6.93;87.80;94974.69;5002396;28;20403;-75
2020/12/24 05:33:10;;;;;;;0.20;0.10;;;;;;;6.95;87.72;94989.19;5009504;28;20113;-75
2020/12/24 05:35:35;;;;;;;3.92;0.30;;;;;;;6.84;87.95;94965.81;5024699;28;20495;-75
2020/12/24 05:38:01;;;;;;;1.27;0.15;;;;;;;6.79;88.69;94990.44;5026751;28;20053;-75
2020/12/24 05:40:28;;;;;;;0.88;0.15;;;;;;;6.53;88.34;94997.09;5013376;28;20042;-75
2020/12/24 05:42:56;;;;;;;0.10;0.00;;;;;;;6.43;88.05;95029.69;5009331;28;20034;-75
2020/12/24 05:45:26;;;;;;;0.30;0.10;;;;;;;6.51;88.54;95013.25;5009480;28;20071;-75
2020/12/24 05:48:14;;;;;;;0.35;0.20;;;;;;;6.14;87.64;94977.69;5025082;28;20069;-75
2020/12/24 05:50:43;;;;;;;0.52;0.20;;;;;;;6.49;88.89;95026.72;5009760;28;20045;-76
2020/12/24 05:53:10;;;;;;;0.88;0.30;;;;;;;6.41;88.66;94992.22;5026530;28;20143;-75
2020/12/24 05:55:39;;;;;;;2.42;0.28;;;;;;;6.61;87.68;95010.50;5009937;28;20495;-76
2020/12/24 05:58:07;;;;;;;0.55;0.30;;;;;;;6.61;87.55;94993.84;5008272;28;20066;-75
2020/12/24 06:00:43;;;;;;;0.90;0.20;;;;;;;6.43;87.62;95017.28;5024462;28;20088;-76
2020/12/24 06:03:16;;;;;;;2.13;0.30;;;;;;;6.49;86.77;95018.00;5009290;28;20029;-74
2020/12/24 06:06:04;;;;;;;0.52;0.30;;;;;;;6.53;86.82;95016.38;5012250;28;20096;-75
2020/12/24 06:08:34;;;;;;;0.98;0.10;;;;;;;6.33;86.58;95011.31;5012949;28;20442;-74
2020/12/24 06:11:04;;;;;;;0.55;0.20;;;;;;;6.32;85.25;95023.72;5014602;28;20037;-74
2020/12/24 06:13:35;;;;;;;0.85;0.28;;;;;;;6.23;85.72;95012.97;5012461;28;20491;-75
2020/12/24 06:16:04;;;;;;;0.28;0.20;;;;;;;6.24;85.55;95014.56;5012864;28;20046;-75
2020/12/24 06:18:38;;;;;;;0.32;0.13;;;;;;;6.12;86.20;95008.06;5012787;28;20033;-75
2020/12/24 06:21:12;;;;;;;0.47;0.20;;;;;;;6.35;84.91;95007.34;5012963;28;20084;-75
2020/12/24 06:23:40;;;;;;;0.63;0.22;;;;;;;6.49;84.63;94991.56;5012655;28;20518;-75
2020/12/24 06:26:09;;;;;;;0.40;0.30;;;;;;;6.21;85.41;94988.72;5014516;28;20044;-75
2020/12/24 06:28:37;;;;;;;0.50;0.20;;;;;;;6.37;84.05;94985.91;5012439;28;20069;-74
2020/12/24 06:31:03;;;;;;;0.75;0.30;;;;;;;6.32;84.04;94972.75;5027620;28;20042;-75
2020/12/24 06:33:29;;;;;;;1.13;0.30;;;;;;;6.57;82.94;94988.31;5011017;28;20127;-75
2020/12/24 06:35:55;;;;;;;0.93;0.40;;;;;;;6.44;81.18;94991.63;5012147;28;20511;-75
2020/12/24 06:38:44;;;;;;;0.88;0.20;;;;;;;6.69;81.85;94985.28;5010296;28;20026;-75
2020/12/24 06:41:34;;;;;;;0.82;0.40;;;;;;;6.65;79.38;94973.69;5029536;28;20069;-74
2020/12/24 06:43:59;;;;;;;2.65;0.40;;;;;;;6.84;80.85;94958.66;5011290;28;20107;-76
2020/12/24 06:46:24;;;;;;;1.48;0.40;;;;;;;6.80;80.31;94952.34;5012033;28;20042;-77
2020/12/24 06:49:03;;;;;;;1.10;0.52;;;;;;;7.04;79.30;94970.81;5007428;28;20045;-71
2020/12/24 06:51:46;;;;;;;1.65;0.35;;;;;;;6.52;80.54;94954.03;5001281;28;20034;-75
2020/12/24 06:54:22;;;;;;;0.80;0.40;;;;;;;6.67;81.16;94943.28;5011533;28;20034;-73
2020/12/24 06:56:48;;;;;;;2.03;0.68;;;;;;;6.54;79.93;94933.38;5011497;28;20030;-72
2020/12/24 06:59:21;;;;;;;1.52;0.30;;;;;;;6.76;80.49;94935.50;5011807;28;20083;-74
2020/12/24 07:02:01;;;;;;;0.63;0.20;;;;;;;6.84;78.94;94950.72;5026651;28;20547;-73
2020/12/24 07:04:39;;;;;;;2.95;0.38;;;;;;;6.83;79.10;94941.22;4982161;28;20050;-73
2020/12/24 07:07:05;;;;;;;0.55;0.40;;;;;;;6.60;79.09;94932.25;5011380;28;20080;-73
2020/12/24 07:09:30;;;;;;;1.38;0.32;;;;;;;6.65;79.32;94965.75;5010946;28;20041;-72
2020/12/24 07:11:56;;;;;;;2.47;0.40;;;;;;;6.97;78.87;94959.81;5011107;28;20647;-73
2020/12/24 07:14:31;;;;;;;3.72;0.30;;;;;;;6.89;78.42;94966.53;5026032;28;20435;-74
2020/12/24 07:16:58;;;;;;;2.45;0.47;;;;;;;7.05;78.35;94959.16;5013022;28;20084;-72
2020/12/24 07:19:24;;;;;;;1.25;0.30;;;;;;;6.97;77.69;94930.75;5026325;28;20092;-74
2020/12/24 07:21:53;;;;;;;1.73;0.40;;;;;;;6.96;78.17;94894.78;5009542;28;20132;-73
2020/12/24 07:24:35;;;;;;;2.55;0.47;;;;;;;7.32;76.90;94933.91;5010594;28;20030;-77
2020/12/24 07:27:02;;;;;;;1.20;0.47;;;;;;;7.11;76.06;94947.44;4999478;28;20542;-74
2020/12/24 07:29:29;;;;;;;0.60;0.20;;;;;;;6.74;76.11;94847.75;5016328;28;20037;-81
2020/12/24 07:31:56;;;;;;;1.83;0.30;;;;;;;7.17;74.98;94951.63;5013459;28;20037;-78
2020/12/24 07:34:27;;;;;;;2.83;0.60;;;;;;;6.97;75.45;94909.59;5007248;28;20038;-78
2020/12/24 07:36:52;;;;;;;1.00;0.13;;;;;;;7.20;75.14;94921.13;5011354;28;20555;-74
2020/12/24 07:39:21;;;;;;;2.80;0.30;;;;;;;7.07;74.77;94895.44;4993891;28;20113;-75
2020/12/24 07:41:50;;;;;;;0.93;0.30;;;;;;;7.22;74.47;94901.28;5010011;28;20034;-72
2020/12/24 07:44:18;;;;;;;1.05;0.30;;;;;;;6.32;75.40;94804.47;5011657;28;20447;-74
2020/12/24 07:46:47;;;;;;;1.15;0.40;;;;;;;7.12;75.42;94935.81;5013917;28;20133;-77
2020/12/24 07:49:13;;;;;;;0.52;0.17;;;;;;;6.72;74.49;94869.22;5009618;28;20044;-77
2020/12/24 07:51:39;;;;;;;0.52;0.30;;;;;;;7.19;74.71;94898.41;5026443;28;20125;-75
2020/12/24 07:54:09;;;;;;;0.88;0.30;;;;;;;7.37;74.61;94886.22;5026631;28;20113;-71
2020/12/24 07:56:36;;;;;;;1.90;0.40;;;;;;;7.27;73.07;94905.72;5011517;28;20037;-72
2020/12/24 07:59:03;;;;;;;2.00;0.50;;;;;;;7.03;73.31;94882.00;5012288;28;20022;-74
2020/12/24 08:01:29;;;;;;;0.73;0.30;;;;;;;7.33;73.53;94885.25;5010273;28;20042;-75
2020/12/24 08:04:03;;;;;;;5.28;0.70;;;;;;;7.01;71.84;94839.97;5024981;28;20052;-73
2020/12/24 08:06:28;;;;;;;0.82;0.30;;;;;;;7.43;72.95;94893.03;5008805;28;20037;-74
2020/12/24 08:09:24;;;;;;;1.80;0.32;;;;;;;7.25;72.14;94886.66;5010186;28;20063;-73
2020/12/24 08:11:54;;;;;;;1.48;0.40;;;;;;;7.14;72.43;94890.56;5010564;28;20046;-81
2020/12/24 08:14:23;;;;;;;2.05;0.40;;;;;;;7.47;71.97;94902.75;5025585;28;20513;-77
2020/12/24 08:16:50;;;;;;;1.63;0.40;;;;;;;7.43;71.67;94877.16;5011060;28;20487;-75
2020/12/24 08:19:56;;;;;;;0.73;0.38;;;;;;;7.58;71.66;94887.47;5009857;28;20431;-74
2020/12/24 08:22:29;;;;;;;3.38;0.40;;;;;;;7.74;71.73;94878.19;5010095;28;20100;-74
2020/12/24 08:24:55;;;;;;;0.57;0.30;;;;;;;7.25;70.40;94828.47;5010050;28;20088;-75
2020/12/24 08:27:21;;;;;;;0.50;0.40;;;;;;;7.40;71.46;94865.25;5024610;28;20050;-75
2020/12/24 08:29:48;;;;;;;3.17;0.50;;;;;;;7.52;70.75;94851.56;5008339;28;20488;-72
2020/12/24 08:32:14;;;;;;;0.68;0.40;;;;;;;7.88;70.21;94872.91;5011428;28;20406;-73
2020/12/24 08:34:40;;;;;;;1.13;0.30;;;;;;;8.02;70.04;94872.91;5009040;28;20072;-74
2020/12/24 08:37:05;;;;;;;1.20;0.30;;;;;;;8.07;69.12;94860.34;5025024;28;20503;-74
2020/12/24 08:39:31;;;;;;;0.40;0.35;;;;;;;7.91;67.65;94850.34;5024796;28;20053;-74
2020/12/24 08:41:58;;;;;;;0.55;0.40;;;;;;;7.79;67.54;94870.16;5009704;28;20046;-74
2020/12/24 08:44:25;;;;;;;1.15;0.40;;;;;;;7.90;68.45;94848.78;5009394;28;20084;-74
2020/12/24 08:47:11;;;;;;;2.30;0.82;;;;;;;7.78;68.15;94843.97;5027262;28;20113;-77
2020/12/24 08:49:41;;;;;;;0.50;0.40;;;;;;;8.01;68.98;94843.00;5008252;28;20526;-75
2020/12/24 08:52:24;;;;;;;0.75;0.30;;;;;;;7.82;68.85;94792.75;5010523;28;20077;-80
2020/12/24 08:55:09;;;;;;;0.70;0.38;;;;;;;8.31;67.87;94856.72;5011681;28;20104;-80
2020/12/24 08:57:36;;;;;;;0.57;0.30;;;;;;;8.04;68.20;94846.94;5011731;28;20114;-80
2020/12/24 09:00:07;;;;;;;2.15;0.30;;;;;;;7.95;67.71;94846.81;5010384;28;20412;-73
2020/12/24 09:02:35;;;;;;;1.80;0.35;;;;;;;7.53;69.77;94843.34;5008770;28;20033;-71
2020/12/24 09:05:02;;;;;;;1.10;0.30;;;;;;;7.74;69.34;94822.59;5011573;28;20471;-76
2020/12/24 09:07:31;;;;;;;1.00;0.25;;;;;;;8.07;69.68;94849.75;5009745;28;20045;-80
2020/12/24 09:10:17;;;;;;;0.30;0.25;;;;;;;7.69;69.89;94833.28;5009092;28;20514;-73
2020/12/24 09:12:44;;;;;;;0.60;0.30;;;;;;;7.55;70.09;94848.34;5009407;28;20045;-77
2020/12/24 09:15:16;;;;;;;0.40;0.25;;;;;;;7.61;69.70;94855.13;5009234;28;20116;-75
2020/12/24 09:17:59;;;;;;;0.95;0.40;;;;;;;7.32;70.85;94820.97;5008648;28;20045;-69
2020/12/24 09:20:26;;;;;;;1.73;0.40;;;;;;;7.67;70.40;94842.56;5009382;28;20053;-73
2020/12/24 09:22:54;;;;;;;0.75;0.40;;;;;;;7.18;70.35;94693.19;5026140;28;20476;-76
2020/12/24 09:25:38;;;;;;;0.30;0.30;;;;;;;8.00;69.27;94822.09;5008984;28;20147;-71
2020/12/24 09:28:21;;;;;;;0.55;0.10;;;;;;;7.84;68.19;94752.78;5009165;28;20034;-73
2020/12/24 09:30:48;;;;;;;0.22;0.20;;;;;;;8.17;68.42;94824.16;5024399;28;20038;-72
2020/12/24 09:33:13;;;;;;;2.45;0.60;;;;;;;8.34;68.84;94808.41;5008708;28;20034;-72
2020/12/24 09:35:38;;;;;;;0.15;0.10;;;;;;;8.31;67.95;94779.88;5008923;28;20077;-70
2020/12/24 09:38:04;;;;;;;0.85;0.38;;;;;;;8.80;67.33;94820.72;5026295;28;20018;-68
2020/12/24 09:40:30;;;;;;;1.02;0.20;;;;;;;8.75;67.32;94810.22;5012436;28;20592;-71
2020/12/24 09:42:55;;;;;;;1.10;0.20;;;;;;;8.64;67.10;94772.53;5012692;28;20096;-72
2020/12/24 09:45:23;;;;;;;2.45;0.40;;;;;;;8.90;66.79;94777.25;5012289;28;20034;-74
2020/12/24 09:47:49;;;;;;;0.20;0.20;;;;;;;9.07;65.88;94798.63;5013055;28;20395;-70
2020/12/24 09:50:14;;;;;;;0.57;0.20;;;;;;;9.17;64.95;94801.03;5012766;28;20029;-70
2020/12/24 09:52:40;;;;;;;0.50;0.50;;;;;;;9.15;65.48;94797.88;5013373;28;20539;-69
2020/12/24 09:55:06;;;;;;;1.75;0.40;;;;;;;9.03;65.10;94774.56;5012632;28;20092;-70
2020/12/24 09:57:33;;;;;;;0.65;0.30;;;;;;;8.63;65.09;94760.38;5012399;28;20030;-70
2020/12/24 09:59:59;;;;;;;0.65;0.35;;;;;;;8.96;65.56;94786.69;5011526;28;20038;-71
2020/12/24 10:02:26;;;;;;;0.75;0.35;;;;;;;9.07;65.63;94788.00;5014114;28;20030;-71
2020/12/24 10:04:54;;;;;;;0.40;0.30;;;;;;;9.01;64.94;94797.19;5015193;28;20038;-73
2020/12/24 10:07:23;;;;;;;0.38;0.38;;;;;;;8.69;65.65;94764.47;5013703;28;20038;-82
2020/12/24 10:09:50;;;;;;;0.70;0.40;;;;;;;8.48;65.97;94790.66;5012661;28;20042;-81
2020/12/24 10:12:20;;;;;;;1.63;0.80;;;;;;;8.53;65.63;94753.44;5028986;28;20134;-72
2020/12/24 10:14:46;;;;;;;0.73;0.50;;;;;;;8.44;65.44;94749.94;5012150;28;20065;-75
2020/12/24 10:17:12;;;;;;;0.95;0.57;;;;;;;8.32;65.13;94726.56;5015144;28;20026;-74
2020/12/24 10:19:37;;;;;;;1.88;0.57;;;;;;;8.28;65.73;94775.16;5013706;28;20056;-81
2020/12/24 10:22:03;;;;;;;1.27;0.50;;;;;;;7.86;66.40;94758.56;5013518;28;20037;-79
2020/12/24 10:24:28;;;;;;;0.82;0.30;;;;;;;7.46;66.49;94689.44;5011941;28;20499;-75
2020/12/24 10:26:55;;;;;;;0.40;0.32;;;;;;;7.88;66.85;94747.66;5013536;28;20045;-73
2020/12/24 10:29:21;;;;;;;0.82;0.50;;;;;;;8.03;66.21;94726.16;5012850;28;20057;-71
2020/12/24 10:31:46;;;;;;;1.70;0.38;;;;;;;7.91;67.45;94731.19;5015308;28;20038;-80
2020/12/24 10:34:12;;;;;;;0.30;0.30;;;;;;;8.12;66.07;94718.28;5013842;28;20696;-81
2020/12/24 10:36:38;;;;;;;1.45;0.40;;;;;;;7.98;65.99;94710.38;5028962;28;20152;-79
2020/12/24 10:39:07;;;;;;;0.47;0.35;;;;;;;8.01;66.02;94715.09;5012717;28;20042;-73
2020/12/24 10:41:33;;;;;;;0.40;0.35;;;;;;;7.88;66.33;94715.88;5012613;28;20026;-76
2020/12/24 10:43:58;;;;;;;0.55;0.35;;;;;;;7.84;66.76;94723.66;5014883;28;20038;-80
2020/12/24 10:46:25;;;;;;;0.30;0.30;;;;;;;7.71;66.90;94711.19;5012500;28;20044;-76
2020/12/24 10:48:50;;;;;;;1.73;0.40;;;;;;;7.87;66.02;94707.16;5012974;28;20519;-79
2020/12/24 10:51:15;;;;;;;1.90;0.40;;;;;;;7.61;66.91;94712.19;5012994;28;20041;-80
2020/12/24 10:53:41;;;;;;;1.15;0.47;;;;;;;7.54;67.03;94701.22;5028105;28;20038;-78
2020/12/24 10:56:14;;;;;;;1.00;0.30;;;;;;;7.74;67.22;94700.81;5029833;28;20025;-79
2020/12/24 10:58:44;;;;;;;0.90;0.45;;;;;;;7.85;66.36;94697.94;5011336;28;20038;-77
2020/12/24 11:01:14;;;;;;;0.40;0.30;;;;;;;7.92;67.14;94707.03;5028331;28;20488;-72
2020/12/24 11:03:40;;;;;;;0.32;0.30;;;;;;;7.98;66.10;94705.84;5012565;28;20052;-79
2020/12/24 11:06:06;;;;;;;1.83;0.30;;;;;;;7.96;66.24;94691.34;5011180;28;20117;-81
2020/12/24 11:08:33;;;;;;;4.78;0.50;;;;;;;8.30;65.60;94704.13;5011896;28;20026;-77
2020/12/24 11:10:59;;;;;;;1.40;0.40;;;;;;;8.65;64.78;94705.19;5029645;28;20379;-75
2020/12/24 11:13:25;;;;;;;0.75;0.55;;;;;;;8.73;62.59;94687.75;5012180;28;20034;-74
2020/12/24 11:15:50;;;;;;;1.98;0.30;;;;;;;8.68;61.63;94690.53;5010824;28;20121;-75
2020/12/24 11:18:16;;;;;;;1.85;0.32;;;;;;;8.82;61.35;94697.34;5027323;28;20037;-74
2020/12/24 11:20:41;;;;;;;2.15;0.75;;;;;;;8.98;61.29;94686.34;5013103;28;20121;-80
2020/12/24 11:23:09;;;;;;;0.50;0.20;;;;;;;9.10;60.58;94705.13;5014864;28;20049;-80
2020/12/24 11:25:34;;;;;;;0.50;0.30;;;;;;;9.18;59.85;94703.63;5009736;28;20049;-74
2020/12/24 11:28:00;;;;;;;1.20;0.60;;;;;;;9.41;58.41;94680.44;5012187;28;20041;-83
2020/12/24 11:30:26;;;;;;;4.15;0.63;;;;;;;9.69;58.21;94681.78;5027069;28;20034;-74
2020/12/24 11:32:51;;;;;;;1.10;0.20;;;;;;;9.64;57.31;94681.94;5026169;28;20064;-74
2020/12/24 11:35:16;;;;;;;2.20;0.50;;;;;;;9.72;57.77;94646.63;5011359;28;20037;-73
2020/12/24 11:37:42;;;;;;;1.30;0.30;;;;;;;9.57;57.42;94663.00;5013367;28;20021;-73
2020/12/24 11:40:07;;;;;;;1.08;0.63;;;;;;;9.37;56.88;94659.84;5011231;28;20116;-71
2020/12/24 11:42:33;;;;;;;2.47;0.50;;;;;;;9.28;58.00;94666.19;5013015;28;20050;-76